createdAt,value
2019-05-28T00:00:04.441Z,22.44
2019-05-28T00:02:38.511Z,22.45
2019-05-28T00:05:10.727Z,22.49
2019-05-28T00:07:48.206Z,22.41
2019-05-28T00:10:21.266Z,22.39
2019-05-28T00:12:52.852Z,22.39
2019-05-28T00:15:23.714Z,22.38
2019-05-28T00:17:59.322Z,22.31
2019-05-28T00:20:36.289Z,22.29
2019-05-28T00:23:07.875Z,22.20
2019-05-28T00:25:40.553Z,22.19
2019-05-28T00:28:11.625Z,22.15
2019-05-28T00:30:44.448Z,22.22
2019-05-28T00:33:19.074Z,22.29
2019-05-28T00:36:00.665Z,22.18
2019-05-28T00:38:34.463Z,22.19
2019-05-28T00:41:11.261Z,22.30
2019-05-28T00:43:44.198Z,22.22
2019-05-28T00:46:16.503Z,21.98
2019-05-28T00:48:49.962Z,22.13
2019-05-28T00:51:23.332Z,22.08
2019-05-28T00:53:55.675Z,22.10
2019-05-28T00:56:27.800Z,22.09
2019-05-28T00:58:59.840Z,22.09
2019-05-28T01:01:32.271Z,22.10
2019-05-28T01:04:03.441Z,22.12
2019-05-28T01:06:34.463Z,22.11
2019-05-28T01:09:06.935Z,21.97
2019-05-28T01:11:41.441Z,22.00
2019-05-28T01:14:15.676Z,22.07
2019-05-28T01:16:48.172Z,21.98
2019-05-28T01:19:23.672Z,21.92
2019-05-28T01:21:59.428Z,21.88
2019-05-28T01:24:30.537Z,21.92
2019-05-28T01:27:02.189Z,21.90
2019-05-28T01:29:33.192Z,21.70
2019-05-28T01:32:07.654Z,21.84
2019-05-28T01:34:39.991Z,21.87
2019-05-28T01:37:14.281Z,21.92
2019-05-28T01:39:45.269Z,21.99
2019-05-28T01:42:18.171Z,21.77
2019-05-28T01:44:51.258Z,21.61
2019-05-28T01:47:22.510Z,21.69
2019-05-28T01:49:54.213Z,21.64
2019-05-28T01:52:27.392Z,21.69
2019-05-28T01:54:59.558Z,21.68
2019-05-28T01:57:33.502Z,21.44
2019-05-28T02:00:07.110Z,21.72
2019-05-28T02:02:40.126Z,21.62
2019-05-28T02:05:15.882Z,21.62
2019-05-28T02:07:46.292Z,21.63
2019-05-28T02:10:19.187Z,21.65
2019-05-28T02:12:54.563Z,21.72
2019-05-28T02:15:29.252Z,21.53
2019-05-28T02:18:00.046Z,21.53
2019-05-28T02:20:31.746Z,21.50
2019-05-28T02:23:03.841Z,21.50
2019-05-28T02:25:35.100Z,21.70
2019-05-28T02:28:08.429Z,21.65
2019-05-28T02:30:42.165Z,21.05
2019-05-28T02:33:13.949Z,21.05
2019-05-28T02:35:49.602Z,20.95
2019-05-28T02:38:20.904Z,20.95
2019-05-28T02:40:51.968Z,21.36
2019-05-28T02:43:24.695Z,21.21
2019-05-28T02:45:56.339Z,21.10
2019-05-28T02:48:29.475Z,21.10
2019-05-28T02:51:04.198Z,21.16
2019-05-28T02:53:36.642Z,21.10
2019-05-28T02:56:08.083Z,21.29
2019-05-28T02:58:43.131Z,21.14
2019-05-28T03:01:14.147Z,21.13
2019-05-28T03:03:55.718Z,20.73
2019-05-28T03:06:30.804Z,21.01
2019-05-28T03:09:04.799Z,20.84
2019-05-28T03:11:43.708Z,20.77
2019-05-28T03:14:17.618Z,20.92
2019-05-28T03:16:54.154Z,20.98
2019-05-28T03:19:28.930Z,21.01
2019-05-28T03:22:03.749Z,21.18
2019-05-28T03:24:36.838Z,21.04
2019-05-28T03:27:07.188Z,21.04
2019-05-28T03:29:42.220Z,21.26
2019-05-28T03:32:17.679Z,21.17
2019-05-28T03:34:48.826Z,21.18
2019-05-28T03:37:20.787Z,21.07
2019-05-28T03:39:54.685Z,21.14
2019-05-28T03:42:30.796Z,21.21
2019-05-28T03:45:04.864Z,20.80
2019-05-28T03:47:37.205Z,20.80
2019-05-28T03:50:10.452Z,20.77
2019-05-28T03:52:44.706Z,20.55
2019-05-28T03:55:17.930Z,20.79
2019-05-28T03:57:49.173Z,20.86
2019-05-28T04:00:22.557Z,20.54
2019-05-28T04:02:53.105Z,20.60
2019-05-28T04:05:26.537Z,20.66
2019-05-28T04:08:00.344Z,20.64
2019-05-28T04:10:33.097Z,20.64
2019-05-28T04:13:07.631Z,20.65
2019-05-28T04:15:40.132Z,20.62
2019-05-28T04:18:17.263Z,20.81
2019-05-28T04:20:51.785Z,20.60
2019-05-28T04:23:24.550Z,20.74
2019-05-28T04:25:56.903Z,20.74
2019-05-28T04:28:33.823Z,20.30
2019-05-28T04:31:10.221Z,20.25
2019-05-28T04:33:41.763Z,20.28
2019-05-28T04:36:13.722Z,20.28
2019-05-28T04:38:44.558Z,20.55
2019-05-28T04:41:19.586Z,20.57
2019-05-28T04:43:56.071Z,20.58
2019-05-28T04:46:29.864Z,20.24
2019-05-28T04:49:03.997Z,20.17
2019-05-28T04:51:38.074Z,20.46
2019-05-28T04:54:08.788Z,20.24
2019-05-28T04:56:39.849Z,19.91
2019-05-28T04:59:13.115Z,20.39
2019-05-28T05:01:45.294Z,19.65
2019-05-28T05:04:18.146Z,19.98
2019-05-28T05:06:50.016Z,19.93
2019-05-28T05:09:21.860Z,20.31
2019-05-28T05:11:53.087Z,20.11
2019-05-28T05:14:24.135Z,20.26
2019-05-28T05:16:57.436Z,20.15
2019-05-28T05:19:29.192Z,20.30
2019-05-28T05:22:11.370Z,20.30
2019-05-28T05:24:45.854Z,20.28
2019-05-28T05:27:17.565Z,20.43
2019-05-28T05:29:48.398Z,20.62
2019-05-28T05:32:20.703Z,20.32
2019-05-28T05:34:50.966Z,20.40
2019-05-28T05:37:21.550Z,20.43
2019-05-28T05:39:56.039Z,20.47
2019-05-28T05:42:29.284Z,20.78
2019-05-28T05:45:02.222Z,20.63
2019-05-28T05:47:35.519Z,20.93
2019-05-28T05:50:08.814Z,20.93
2019-05-28T05:52:40.416Z,20.86
2019-05-28T05:55:10.720Z,21.12
2019-05-28T05:57:43.257Z,21.12
2019-05-28T06:00:17.671Z,21.16
2019-05-28T06:02:51.980Z,20.85
2019-05-28T06:05:23.727Z,20.79
2019-05-28T06:07:56.565Z,21.12
2019-05-28T06:10:28.022Z,21.12
2019-05-28T06:13:03.298Z,20.73
2019-05-28T06:15:34.748Z,20.74
2019-05-28T06:18:14.211Z,20.84
2019-05-28T06:20:47.139Z,21.12
2019-05-28T06:23:18.054Z,21.35
2019-05-28T06:25:50.012Z,21.21
2019-05-28T06:28:20.854Z,21.08
2019-05-28T06:30:51.477Z,21.20
2019-05-28T06:33:24.557Z,21.32
2019-05-28T06:36:00.113Z,21.14
2019-05-28T06:38:35.344Z,20.80
2019-05-28T06:41:08.023Z,21.15
2019-05-28T06:43:46.216Z,21.28
2019-05-28T06:46:21.086Z,21.38
2019-05-28T06:48:54.966Z,21.38
2019-05-28T06:51:26.633Z,21.44
2019-05-28T06:53:57.776Z,21.43
2019-05-28T06:56:31.122Z,21.40
2019-05-28T06:59:02.606Z,20.97
2019-05-28T07:01:38.516Z,20.95
2019-05-28T07:04:14.349Z,20.61
2019-05-28T07:06:46.917Z,20.55
2019-05-28T07:09:25.537Z,20.88
2019-05-28T07:11:57.886Z,20.96
2019-05-28T07:14:29.603Z,20.96
2019-05-28T07:17:02.788Z,21.03
2019-05-28T07:19:41.004Z,20.96
2019-05-28T07:22:11.209Z,21.21
2019-05-28T07:24:46.631Z,21.53
2019-05-28T07:27:21.166Z,21.46
2019-05-28T07:29:52.600Z,21.76
2019-05-28T07:32:25.632Z,21.71
2019-05-28T07:34:57.929Z,22.38
2019-05-28T07:37:28.911Z,22.36
2019-05-28T07:40:00.489Z,22.11
2019-05-28T07:42:35.927Z,21.81
2019-05-28T07:45:15.801Z,21.46
2019-05-28T07:47:51.426Z,21.71
2019-05-28T07:50:44.588Z,21.66
2019-05-28T07:53:21.775Z,21.73
2019-05-28T07:55:57.134Z,21.46
2019-05-28T07:58:30.561Z,21.34
2019-05-28T08:01:02.175Z,21.97
2019-05-28T08:03:33.831Z,22.16
2019-05-28T08:06:05.575Z,22.11
2019-05-28T08:08:38.697Z,21.86
2019-05-28T08:11:14.907Z,22.24
2019-05-28T08:13:46.296Z,22.41
2019-05-28T08:16:19.401Z,22.32
2019-05-28T08:18:52.789Z,22.36
2019-05-28T08:21:27.505Z,22.61
2019-05-28T08:23:58.274Z,22.59
2019-05-28T08:26:30.342Z,22.38
2019-05-28T08:29:05.759Z,22.43
2019-05-28T08:31:41.313Z,22.21
2019-05-28T08:34:19.343Z,22.08
2019-05-28T08:37:05.000Z,22.10
2019-05-28T08:39:33.351Z,22.39
2019-05-28T08:42:06.251Z,22.13
2019-05-28T08:44:39.482Z,22.16
2019-05-28T08:47:11.628Z,22.35
2019-05-28T08:49:42.276Z,22.12
2019-05-28T08:52:14.308Z,22.18
2019-05-28T08:54:45.405Z,22.17
2019-05-28T08:57:17.333Z,21.86
2019-05-28T08:59:48.154Z,22.25
2019-05-28T09:02:27.660Z,22.30
2019-05-28T09:04:57.389Z,21.98
2019-05-28T09:07:33.167Z,22.16
2019-05-28T09:10:09.303Z,22.47
2019-05-28T09:12:43.561Z,22.79
2019-05-28T09:15:17.035Z,23.13
2019-05-28T09:17:50.451Z,23.13
2019-05-28T09:20:23.980Z,23.49
2019-05-28T09:22:56.840Z,23.35
2019-05-28T09:25:30.354Z,23.41
2019-05-28T09:28:05.911Z,23.49
2019-05-28T09:30:37.343Z,23.84
2019-05-28T09:33:08.231Z,23.34
2019-05-28T09:35:46.814Z,23.57
2019-05-28T09:38:17.430Z,23.74
2019-05-28T09:40:50.926Z,23.41
2019-05-28T09:43:23.099Z,23.09
2019-05-28T09:45:53.652Z,23.29
2019-05-28T09:48:25.125Z,23.44
2019-05-28T09:50:55.470Z,23.54
2019-05-28T09:53:27.434Z,23.68
2019-05-28T09:55:58.095Z,23.71
2019-05-28T09:58:28.865Z,23.74
2019-05-28T10:01:04.351Z,23.92
2019-05-28T10:03:36.093Z,23.86
2019-05-28T10:06:16.348Z,23.61
2019-05-28T10:08:41.113Z,23.16
2019-05-28T10:11:11.363Z,23.79
2019-05-28T10:13:47.652Z,24.40
2019-05-28T10:16:21.079Z,24.33
2019-05-28T10:18:53.655Z,23.92
2019-05-28T10:21:24.863Z,23.80
2019-05-28T10:23:58.374Z,23.59
2019-05-28T10:26:34.905Z,23.08
2019-05-28T10:29:07.145Z,22.34
2019-05-28T10:31:42.065Z,22.18
2019-05-28T10:34:15.273Z,21.99
2019-05-28T10:36:47.400Z,22.21
2019-05-28T10:39:18.615Z,22.40
2019-05-28T10:41:49.546Z,22.31
2019-05-28T10:44:22.312Z,22.31
2019-05-28T10:46:52.619Z,22.05
2019-05-28T10:49:25.047Z,21.67
2019-05-28T10:51:56.856Z,21.56
2019-05-28T10:54:49.456Z,21.33
2019-05-28T10:57:22.820Z,21.21
2019-05-28T11:00:01.912Z,21.04
2019-05-28T11:02:39.481Z,21.09
2019-05-28T11:05:14.343Z,20.89
2019-05-28T11:07:47.368Z,20.79
2019-05-28T11:10:24.373Z,20.72
2019-05-28T11:12:53.446Z,21.10
2019-05-28T11:15:27.760Z,21.12
2019-05-28T11:17:59.270Z,21.36
2019-05-28T11:20:30.366Z,21.48
2019-05-28T11:23:00.834Z,21.92
2019-05-28T11:25:32.745Z,22.29
2019-05-28T11:28:02.970Z,22.53
2019-05-28T11:30:33.997Z,22.87
2019-05-28T11:33:06.689Z,23.07
2019-05-28T11:35:38.700Z,23.59
2019-05-28T11:38:08.970Z,23.97
2019-05-28T11:40:40.017Z,24.40
2019-05-28T11:43:10.889Z,24.73
2019-05-28T11:45:43.398Z,25.12
2019-05-28T11:48:14.526Z,25.38
2019-05-28T11:50:46.163Z,25.64
2019-05-28T11:53:24.201Z,25.96
2019-05-28T11:55:59.802Z,26.00
2019-05-28T11:58:32.021Z,25.92
2019-05-28T12:01:03.481Z,25.79
2019-05-28T12:03:33.663Z,25.54
2019-05-28T12:06:05.380Z,25.74
2019-05-28T12:08:36.461Z,26.14
2019-05-28T12:11:08.987Z,26.26
2019-05-28T12:13:40.826Z,25.64
2019-05-28T12:16:14.662Z,26.16
2019-05-28T12:18:50.380Z,26.64
2019-05-28T12:21:24.371Z,26.28
2019-05-28T12:23:56.368Z,25.60
2019-05-28T12:26:28.110Z,25.47
2019-05-28T12:28:58.377Z,25.64
2019-05-28T12:31:28.620Z,25.55
2019-05-28T12:33:59.905Z,25.51
2019-05-28T12:36:30.795Z,25.99
2019-05-28T12:39:01.997Z,26.43
2019-05-28T12:41:34.640Z,26.17
2019-05-28T12:44:07.324Z,26.29
2019-05-28T12:46:39.263Z,26.39
2019-05-28T12:49:12.559Z,25.80
2019-05-28T12:51:53.217Z,26.39
2019-05-28T12:54:27.239Z,27.16
2019-05-28T12:56:58.206Z,27.13
2019-05-28T12:59:32.236Z,27.09
2019-05-28T13:02:03.237Z,27.19
2019-05-28T13:04:33.506Z,27.72
2019-05-28T13:07:07.434Z,27.93
2019-05-28T13:09:39.499Z,27.67
2019-05-28T13:12:15.902Z,27.37
2019-05-28T13:14:46.219Z,27.94
2019-05-28T13:17:18.892Z,28.06
2019-05-28T13:19:50.935Z,27.31
2019-05-28T13:22:23.912Z,26.92
2019-05-28T13:24:57.137Z,26.18
2019-05-28T13:27:29.376Z,26.25
2019-05-28T13:30:01.809Z,26.78
2019-05-28T13:32:34.473Z,27.45
2019-05-28T13:35:07.110Z,27.96
2019-05-28T13:37:39.738Z,28.46
2019-05-28T13:40:12.767Z,28.46
2019-05-28T13:42:44.554Z,28.04
2019-05-28T13:45:16.189Z,28.24
2019-05-28T13:47:51.973Z,27.73
2019-05-28T13:50:43.687Z,27.65
2019-05-28T13:53:18.710Z,27.01
2019-05-28T13:55:49.798Z,26.60
2019-05-28T13:58:20.949Z,26.11
2019-05-28T14:00:52.586Z,25.65
2019-05-28T14:03:24.994Z,25.55
2019-05-28T14:05:55.649Z,25.62
2019-05-28T14:08:44.587Z,26.11
2019-05-28T14:11:02.189Z,26.68
2019-05-28T14:13:36.683Z,27.47
2019-05-28T14:16:08.755Z,27.68
2019-05-28T14:18:40.571Z,28.67
2019-05-28T14:21:12.474Z,28.89
2019-05-28T14:23:43.408Z,29.64
2019-05-28T14:26:20.892Z,28.92
2019-05-28T14:28:53.791Z,28.90
2019-05-28T14:31:26.425Z,29.67
2019-05-28T14:34:00.590Z,29.94
2019-05-28T14:36:35.204Z,30.61
2019-05-28T14:39:08.314Z,30.94
2019-05-28T14:41:38.972Z,30.78
2019-05-28T14:44:10.396Z,30.84
2019-05-28T14:46:42.286Z,30.18
2019-05-28T14:49:17.600Z,29.40
2019-05-28T14:51:48.973Z,29.03
2019-05-28T14:54:20.219Z,28.60
2019-05-28T14:56:51.684Z,28.48
2019-05-28T14:59:22.488Z,28.32
2019-05-28T15:01:53.637Z,28.62
2019-05-28T15:04:34.398Z,29.15
2019-05-28T15:07:06.769Z,28.77
2019-05-28T15:09:38.944Z,27.94
2019-05-28T15:12:10.137Z,27.31
2019-05-28T15:14:40.693Z,26.91
2019-05-28T15:17:13.712Z,26.63
2019-05-28T15:19:45.226Z,26.18
2019-05-28T15:22:16.596Z,25.68
2019-05-28T15:24:49.978Z,25.50
2019-05-28T15:27:20.337Z,24.91
2019-05-28T15:29:51.999Z,24.76
2019-05-28T15:32:24.742Z,24.62
2019-05-28T15:34:58.838Z,24.20
2019-05-28T15:37:31.543Z,24.25
2019-05-28T15:40:04.316Z,23.84
2019-05-28T15:42:37.026Z,23.80
2019-05-28T15:45:11.030Z,23.40
2019-05-28T15:47:45.328Z,23.17
2019-05-28T15:50:17.974Z,23.10
2019-05-28T15:52:58.907Z,23.13
2019-05-28T15:55:30.642Z,23.11
2019-05-28T15:58:03.052Z,23.25
2019-05-28T16:00:36.218Z,23.44
2019-05-28T16:03:06.912Z,23.08
2019-05-28T16:05:43.081Z,23.24
2019-05-28T16:08:16.729Z,23.68
2019-05-28T16:10:48.151Z,23.58
2019-05-28T16:13:19.558Z,23.56
2019-05-28T16:15:50.257Z,23.61
2019-05-28T16:18:25.498Z,23.68
2019-05-28T16:20:59.500Z,23.80
2019-05-28T16:23:31.508Z,23.81
2019-05-28T16:26:02.781Z,23.81
2019-05-28T16:28:38.783Z,23.33
2019-05-28T16:31:19.204Z,23.38
2019-05-28T16:33:51.140Z,23.57
2019-05-28T16:36:24.417Z,23.50
2019-05-28T16:38:58.332Z,23.60
2019-05-28T16:41:29.928Z,23.42
2019-05-28T16:44:00.144Z,23.16
2019-05-28T16:46:30.842Z,23.40
2019-05-28T16:49:01.577Z,23.14
2019-05-28T16:51:33.264Z,22.89
2019-05-28T16:54:18.239Z,22.89
2019-05-28T16:56:38.507Z,22.59
2019-05-28T16:59:11.682Z,22.70
2019-05-28T17:01:42.852Z,22.81
2019-05-28T17:04:13.055Z,22.75
2019-05-28T17:06:43.214Z,22.89
2019-05-28T17:09:15.911Z,22.79
2019-05-28T17:11:46.838Z,22.61
2019-05-28T17:14:18.588Z,22.77
2019-05-28T17:16:49.500Z,22.74
2019-05-28T17:19:19.692Z,22.84
2019-05-28T17:21:50.567Z,22.85
2019-05-28T17:24:23.094Z,22.66
2019-05-28T17:26:53.359Z,22.77
2019-05-28T17:29:26.351Z,22.66
2019-05-28T17:31:57.678Z,22.54
2019-05-28T17:34:29.747Z,22.69
2019-05-28T17:37:07.047Z,22.80
2019-05-28T17:39:38.883Z,22.46
2019-05-28T17:42:11.599Z,22.18
2019-05-28T17:44:41.958Z,21.86
2019-05-28T17:47:45.357Z,21.67
2019-05-28T17:50:17.954Z,21.93
2019-05-28T17:52:51.640Z,21.91
2019-05-28T17:55:22.172Z,22.10
2019-05-28T17:57:54.727Z,21.95
2019-05-28T18:00:28.315Z,21.85
2019-05-28T18:02:59.630Z,22.09
2019-05-28T18:05:32.216Z,21.95
2019-05-28T18:08:06.645Z,21.98
2019-05-28T18:10:40.042Z,22.09
2019-05-28T18:13:12.163Z,21.81
2019-05-28T18:15:43.035Z,21.72
2019-05-28T18:18:14.282Z,21.81
2019-05-28T18:20:46.287Z,21.92
2019-05-28T18:23:19.250Z,21.77
2019-05-28T18:25:52.461Z,21.72
2019-05-28T18:28:28.317Z,21.60
2019-05-28T18:30:58.905Z,21.62
2019-05-28T18:33:30.158Z,21.44
2019-05-28T18:36:02.710Z,21.50
2019-05-28T18:39:01.712Z,21.24
2019-05-28T18:41:50.493Z,21.16
2019-05-28T18:44:26.517Z,21.32
2019-05-28T18:46:58.911Z,21.24
2019-05-28T18:49:32.023Z,21.17
2019-05-28T18:52:03.264Z,21.19
2019-05-28T18:54:37.739Z,21.21
2019-05-28T18:57:11.700Z,21.21
2019-05-28T18:59:46.361Z,21.30
2019-05-28T19:02:18.783Z,21.29
2019-05-28T19:04:52.515Z,21.04
2019-05-28T19:07:26.990Z,21.05
2019-05-28T19:10:25.875Z,20.98
2019-05-28T19:12:59.605Z,20.91
2019-05-28T19:15:35.062Z,21.00
2019-05-28T19:18:05.554Z,20.95
2019-05-28T19:20:37.516Z,20.98
2019-05-28T19:23:08.455Z,20.81
2019-05-28T19:25:39.343Z,20.81
2019-05-28T19:28:13.579Z,20.73
2019-05-28T19:31:11.365Z,20.73
2019-05-28T19:33:51.291Z,20.81
2019-05-28T19:37:10.489Z,20.69
2019-05-28T19:39:56.213Z,20.72
2019-05-28T19:43:04.573Z,20.74
2019-05-28T19:46:01.930Z,20.62
2019-05-28T19:48:32.306Z,20.62
2019-05-28T19:51:05.730Z,20.45
2019-05-28T19:53:38.788Z,20.49
2019-05-28T19:56:09.983Z,20.56
2019-05-28T19:58:42.571Z,20.45
2019-05-28T20:01:17.465Z,20.53
2019-05-28T20:03:54.754Z,20.55
2019-05-28T20:06:30.783Z,20.43
2019-05-28T20:09:01.452Z,20.51
2019-05-28T20:11:32.647Z,20.56
2019-05-28T20:14:06.806Z,20.52
2019-05-28T20:16:38.827Z,20.49
2019-05-28T20:19:11.600Z,20.52
2019-05-28T20:21:50.991Z,20.45
2019-05-28T20:24:40.824Z,20.35
2019-05-28T20:27:15.925Z,20.40
2019-05-28T20:29:49.796Z,20.27
2019-05-28T20:32:21.887Z,20.21
2019-05-28T20:34:54.083Z,20.30
2019-05-28T20:37:24.888Z,20.10
2019-05-28T20:40:02.172Z,20.41
2019-05-28T20:42:39.424Z,20.46
2019-05-28T20:45:12.314Z,20.59
2019-05-28T20:47:43.927Z,20.41
2019-05-28T20:50:16.179Z,20.33
2019-05-28T20:52:49.880Z,20.51
2019-05-28T20:55:20.686Z,20.52
2019-05-28T20:57:51.657Z,20.44
2019-05-28T21:00:23.357Z,20.51
2019-05-28T21:02:55.841Z,20.43
2019-05-28T21:05:28.746Z,20.46
2019-05-28T21:07:59.428Z,20.42
2019-05-28T21:10:32.569Z,20.42
2019-05-28T21:13:03.845Z,20.43
2019-05-28T21:15:34.809Z,20.34
2019-05-28T21:18:08.669Z,20.34
2019-05-28T21:20:41.658Z,20.26
2019-05-28T21:23:12.802Z,20.27
2019-05-28T21:25:43.760Z,20.30
2019-05-28T21:28:17.775Z,20.41
2019-05-28T21:30:50.556Z,20.29
2019-05-28T21:33:23.667Z,20.37
2019-05-28T21:35:53.849Z,20.26
2019-05-28T21:38:24.174Z,20.39
2019-05-28T21:40:55.989Z,20.34
2019-05-28T21:43:30.024Z,20.41
2019-05-28T21:46:02.630Z,20.33
2019-05-28T21:48:34.739Z,20.42
2019-05-28T21:51:06.374Z,20.49
2019-05-28T21:53:37.652Z,20.49
2019-05-28T21:56:09.727Z,20.17
2019-05-28T21:58:40.401Z,20.26
2019-05-28T22:01:16.675Z,20.24
2019-05-28T22:03:48.189Z,20.22
2019-05-28T22:06:18.738Z,20.16
2019-05-28T22:08:50.049Z,20.23
2019-05-28T22:11:20.823Z,20.12
2019-05-28T22:13:51.552Z,20.34
2019-05-28T22:16:21.847Z,20.07
2019-05-28T22:18:53.201Z,20.00
2019-05-28T22:21:24.469Z,20.15
2019-05-28T22:23:56.361Z,19.99
2019-05-28T22:26:26.628Z,20.02
2019-05-28T22:28:57.309Z,20.16
2019-05-28T22:31:27.876Z,20.11
2019-05-28T22:34:05.365Z,20.15
2019-05-28T22:36:36.344Z,19.77
2019-05-28T22:39:15.969Z,20.11
2019-05-28T22:41:46.910Z,20.04
2019-05-28T22:44:22.909Z,19.96
2019-05-28T22:46:53.827Z,20.01
2019-05-28T22:49:25.251Z,19.91
2019-05-28T22:51:57.746Z,19.98
2019-05-28T22:54:34.953Z,19.98
2019-05-28T22:57:11.938Z,19.76
2019-05-28T22:59:44.241Z,19.77
2019-05-28T23:02:19.387Z,19.74
2019-05-28T23:04:54.044Z,19.70
2019-05-28T23:07:27.992Z,19.65
2019-05-28T23:10:01.569Z,19.63
2019-05-28T23:12:35.266Z,19.66
2019-05-28T23:15:08.681Z,19.58
2019-05-28T23:17:42.482Z,19.58
2019-05-28T23:20:16.685Z,19.58
2019-05-28T23:22:48.284Z,19.52
2019-05-28T23:25:21.231Z,19.32
2019-05-28T23:27:56.826Z,19.38
2019-05-28T23:30:28.701Z,19.44
2019-05-28T23:33:02.293Z,19.28
2019-05-28T23:35:40.354Z,19.27
2019-05-28T23:38:15.693Z,19.21
2019-05-28T23:40:46.459Z,19.21
2019-05-28T23:43:18.541Z,19.27
2019-05-28T23:45:49.883Z,19.19
2019-05-28T23:48:22.804Z,19.08
2019-05-28T23:50:58.061Z,19.14
2019-05-28T23:53:38.135Z,19.10
2019-05-28T23:56:09.711Z,19.06
2019-05-28T23:58:40.773Z,19.00
